sensor_id;sensor_type;location;lat;lon;timestamp;noise_LAeq;noise_LA_min;noise_LA_max;noise_LA01;noise_LA95
67900;Laerm;54700;51.796;10.956;2023-06-22T00:00:05;29.69;27.57;41.90;;
67900;Laerm;54700;51.796;10.956;2023-06-22T00:02:39;31.56;28.18;44.30;;
67900;Laerm;54700;51.796;10.956;2023-06-22T00:05:07;34.85;30.08;46.34;;
67900;Laerm;54700;51.796;10.956;2023-06-22T00:07:34;30.91;28.15;39.60;;
67900;Laerm;54700;51.796;10.956;2023-06-22T00:10:00;46.84;29.17;63.64;;
67900;Laerm;54700;51.796;10.956;2023-06-22T00:12:29;33.29;28.89;41.40;;
67900;Laerm;54700;51.796;10.956;2023-06-22T00:14:57;32.26;28.59;39.58;;
67900;Laerm;54700;51.796;10.956;2023-06-22T00:17:27;32.94;28.67;42.64;;
67900;Laerm;54700;51.796;10.956;2023-06-22T00:19:54;50.18;28.94;63.63;;
67900;Laerm;54700;51.796;10.956;2023-06-22T00:22:24;32.06;28.10;39.15;;
67900;Laerm;54700;51.796;10.956;2023-06-22T00:24:55;33.01;28.81;41.82;;
67900;Laerm;54700;51.796;10.956;2023-06-22T00:27:22;51.32;29.99;70.75;;
67900;Laerm;54700;51.796;10.956;2023-06-22T00:29:50;53.76;28.46;70.57;;
67900;Laerm;54700;51.796;10.956;2023-06-22T00:32:17;31.37;28.32;38.51;;
67900;Laerm;54700;51.796;10.956;2023-06-22T00:34:44;32.97;28.24;38.80;;
67900;Laerm;54700;51.796;10.956;2023-06-22T00:37:11;50.85;28.55;70.24;;
67900;Laerm;54700;51.796;10.956;2023-06-22T00:39:37;31.74;28.66;41.88;;
67900;Laerm;54700;51.796;10.956;2023-06-22T00:42:05;31.84;28.06;40.94;;
67900;Laerm;54700;51.796;10.956;2023-06-22T00:44:32;31.39;28.02;40.07;;
67900;Laerm;54700;51.796;10.956;2023-06-22T00:47:00;31.62;28.56;39.48;;
67900;Laerm;54700;51.796;10.956;2023-06-22T00:49:27;32.03;27.96;50.86;;
67900;Laerm;54700;51.796;10.956;2023-06-22T00:51:54;32.03;28.27;50.50;;
67900;Laerm;54700;51.796;10.956;2023-06-22T00:54:21;31.84;28.52;40.21;;
67900;Laerm;54700;51.796;10.956;2023-06-22T00:56:50;53.10;29.21;69.76;;
67900;Laerm;54700;51.796;10.956;2023-06-22T00:59:20;32.85;29.12;52.17;;
67900;Laerm;54700;51.796;10.956;2023-06-22T01:01:47;48.37;28.75;63.09;;
67900;Laerm;54700;51.796;10.956;2023-06-22T01:04:15;31.27;28.04;40.19;;
67900;Laerm;54700;51.796;10.956;2023-06-22T01:06:47;29.95;28.01;35.77;;
67900;Laerm;54700;51.796;10.956;2023-06-22T01:09:23;53.05;27.60;70.37;;
67900;Laerm;54700;51.796;10.956;2023-06-22T01:11:54;30.04;27.56;37.18;;
67900;Laerm;54700;51.796;10.956;2023-06-22T01:14:28;30.86;28.11;36.00;;
67900;Laerm;54700;51.796;10.956;2023-06-22T01:16:58;31.43;28.29;40.17;;
67900;Laerm;54700;51.796;10.956;2023-06-22T01:19:38;37.14;27.87;60.84;;
67900;Laerm;54700;51.796;10.956;2023-06-22T01:22:08;32.32;27.99;55.20;;
67900;Laerm;54700;51.796;10.956;2023-06-22T01:24:47;34.13;28.36;53.87;;
67900;Laerm;54700;51.796;10.956;2023-06-22T01:27:28;36.71;29.93;55.85;;
67900;Laerm;54700;51.796;10.956;2023-06-22T01:30:01;35.48;28.45;58.86;;
67900;Laerm;54700;51.796;10.956;2023-06-22T01:32:31;50.28;28.61;66.90;;
67900;Laerm;54700;51.796;10.956;2023-06-22T01:35:00;52.65;29.09;69.31;;
67900;Laerm;54700;51.796;10.956;2023-06-22T01:37:27;40.02;29.79;60.67;;
67900;Laerm;54700;51.796;10.956;2023-06-22T01:39:57;51.85;29.57;67.80;;
67900;Laerm;54700;51.796;10.956;2023-06-22T01:42:25;41.67;29.77;55.95;;
67900;Laerm;54700;51.796;10.956;2023-06-22T01:44:53;48.28;30.34;65.47;;
67900;Laerm;54700;51.796;10.956;2023-06-22T01:47:21;53.38;31.05;70.60;;
67900;Laerm;54700;51.796;10.956;2023-06-22T01:49:49;42.92;31.71;58.32;;
67900;Laerm;54700;51.796;10.956;2023-06-22T01:52:17;45.75;33.98;59.78;;
67900;Laerm;54700;51.796;10.956;2023-06-22T01:54:46;52.65;33.08;67.36;;
67900;Laerm;54700;51.796;10.956;2023-06-22T01:57:13;47.09;33.44;59.19;;
67900;Laerm;54700;51.796;10.956;2023-06-22T01:59:46;52.29;36.73;66.33;;
67900;Laerm;54700;51.796;10.956;2023-06-22T02:02:21;48.46;33.75;61.25;;
67900;Laerm;54700;51.796;10.956;2023-06-22T02:04:56;49.66;34.25;63.61;;
67900;Laerm;54700;51.796;10.956;2023-06-22T02:07:28;49.41;35.35;62.68;;
67900;Laerm;54700;51.796;10.956;2023-06-22T02:09:58;51.51;34.28;67.63;;
67900;Laerm;54700;51.796;10.956;2023-06-22T02:12:27;48.30;34.88;60.72;;
67900;Laerm;54700;51.796;10.956;2023-06-22T02:14:55;54.13;35.46;66.96;;
67900;Laerm;54700;51.796;10.956;2023-06-22T02:17:26;51.49;35.97;63.96;;
67900;Laerm;54700;51.796;10.956;2023-06-22T02:19:52;54.68;36.58;66.34;;
67900;Laerm;54700;51.796;10.956;2023-06-22T02:22:19;50.80;35.11;63.50;;
67900;Laerm;54700;51.796;10.956;2023-06-22T02:24:46;47.86;35.62;60.24;;
67900;Laerm;54700;51.796;10.956;2023-06-22T02:27:14;53.80;36.40;68.72;;
67900;Laerm;54700;51.796;10.956;2023-06-22T02:29:41;49.15;36.21;61.47;;
67900;Laerm;54700;51.796;10.956;2023-06-22T02:32:08;51.58;35.10;65.39;;
67900;Laerm;54700;51.796;10.956;2023-06-22T02:34:37;46.72;35.49;58.52;;
67900;Laerm;54700;51.796;10.956;2023-06-22T02:37:04;52.71;36.67;70.03;;
67900;Laerm;54700;51.796;10.956;2023-06-22T02:39:31;59.90;37.78;70.22;;
67900;Laerm;54700;51.796;10.956;2023-06-22T02:41:57;59.18;36.73;74.28;;
67900;Laerm;54700;51.796;10.956;2023-06-22T02:44:24;50.41;35.70;65.55;;
67900;Laerm;54700;51.796;10.956;2023-06-22T02:46:51;54.37;34.76;67.36;;
67900;Laerm;54700;51.796;10.956;2023-06-22T02:49:19;54.83;37.64;68.27;;
67900;Laerm;54700;51.796;10.956;2023-06-22T02:51:48;46.48;34.69;59.52;;
67900;Laerm;54700;51.796;10.956;2023-06-22T02:54:15;51.42;35.15;67.08;;
67900;Laerm;54700;51.796;10.956;2023-06-22T02:56:42;52.81;34.64;65.01;;
67900;Laerm;54700;51.796;10.956;2023-06-22T02:59:10;44.88;34.01;59.33;;
67900;Laerm;54700;51.796;10.956;2023-06-22T03:01:40;50.16;33.51;66.53;;
67900;Laerm;54700;51.796;10.956;2023-06-22T03:04:07;44.61;34.84;55.46;;
67900;Laerm;54700;51.796;10.956;2023-06-22T03:06:34;54.31;34.72;68.39;;
67900;Laerm;54700;51.796;10.956;2023-06-22T03:09:04;55.42;33.43;68.91;;
67900;Laerm;54700;51.796;10.956;2023-06-22T03:11:32;46.87;32.01;62.36;;
67900;Laerm;54700;51.796;10.956;2023-06-22T03:14:00;57.61;31.61;68.83;;
67900;Laerm;54700;51.796;10.956;2023-06-22T03:16:28;55.91;34.94;67.98;;
67900;Laerm;54700;51.796;10.956;2023-06-22T03:18:55;57.97;35.47;73.87;;
67900;Laerm;54700;51.796;10.956;2023-06-22T03:21:23;57.99;33.33;70.25;;
67900;Laerm;54700;51.796;10.956;2023-06-22T03:23:50;55.76;33.64;67.65;;
67900;Laerm;54700;51.796;10.956;2023-06-22T03:26:18;60.48;35.49;70.70;;
67900;Laerm;54700;51.796;10.956;2023-06-22T03:28:45;59.33;36.07;70.57;;
67900;Laerm;54700;51.796;10.956;2023-06-22T03:31:12;58.70;34.11;69.22;;
67900;Laerm;54700;51.796;10.956;2023-06-22T03:33:39;60.10;36.72;69.65;;
67900;Laerm;54700;51.796;10.956;2023-06-22T03:36:06;58.71;35.92;71.64;;
67900;Laerm;54700;51.796;10.956;2023-06-22T03:38:33;61.29;34.58;76.44;;
67900;Laerm;54700;51.796;10.956;2023-06-22T03:40:59;60.31;38.65;70.08;;
67900;Laerm;54700;51.796;10.956;2023-06-22T03:43:28;59.29;39.50;69.65;;
67900;Laerm;54700;51.796;10.956;2023-06-22T03:45:55;60.08;34.47;72.16;;
67900;Laerm;54700;51.796;10.956;2023-06-22T03:48:22;57.84;34.37;71.68;;
67900;Laerm;54700;51.796;10.956;2023-06-22T03:50:48;58.87;37.18;70.94;;
67900;Laerm;54700;51.796;10.956;2023-06-22T03:53:16;62.10;41.28;81.85;;
67900;Laerm;54700;51.796;10.956;2023-06-22T03:55:48;62.69;34.09;76.75;;
67900;Laerm;54700;51.796;10.956;2023-06-22T03:58:17;58.87;34.26;72.97;;
67900;Laerm;54700;51.796;10.956;2023-06-22T04:00:46;61.33;38.37;71.44;;
67900;Laerm;54700;51.796;10.956;2023-06-22T04:03:13;57.33;35.65;70.24;;
67900;Laerm;54700;51.796;10.956;2023-06-22T04:05:40;61.65;41.74;70.73;;
67900;Laerm;54700;51.796;10.956;2023-06-22T04:08:12;59.68;37.93;69.16;;
67900;Laerm;54700;51.796;10.956;2023-06-22T04:10:39;58.60;38.70;72.15;;
67900;Laerm;54700;51.796;10.956;2023-06-22T04:13:06;59.24;38.69;71.43;;
67900;Laerm;54700;51.796;10.956;2023-06-22T04:15:33;60.44;39.67;70.85;;
67900;Laerm;54700;51.796;10.956;2023-06-22T04:18:01;60.62;38.44;70.16;;
67900;Laerm;54700;51.796;10.956;2023-06-22T04:20:29;58.72;34.97;69.47;;
67900;Laerm;54700;51.796;10.956;2023-06-22T04:22:57;61.67;41.24;71.61;;
67900;Laerm;54700;51.796;10.956;2023-06-22T04:25:24;58.67;37.58;70.27;;
67900;Laerm;54700;51.796;10.956;2023-06-22T04:27:51;61.44;36.51;73.39;;
67900;Laerm;54700;51.796;10.956;2023-06-22T04:30:18;63.28;36.27;75.78;;
67900;Laerm;54700;51.796;10.956;2023-06-22T04:32:44;62.69;40.21;73.11;;
67900;Laerm;54700;51.796;10.956;2023-06-22T04:35:24;61.50;39.60;71.47;;
67900;Laerm;54700;51.796;10.956;2023-06-22T04:37:53;62.92;38.12;75.79;;
67900;Laerm;54700;51.796;10.956;2023-06-22T04:40:21;59.72;34.14;70.36;;
67900;Laerm;54700;51.796;10.956;2023-06-22T04:42:48;62.26;39.06;71.52;;
67900;Laerm;54700;51.796;10.956;2023-06-22T04:45:19;61.11;42.82;72.94;;
67900;Laerm;54700;51.796;10.956;2023-06-22T04:47:49;63.25;40.26;76.93;;
67900;Laerm;54700;51.796;10.956;2023-06-22T04:50:16;64.48;48.47;78.12;;
67900;Laerm;54700;51.796;10.956;2023-06-22T04:52:48;64.97;41.07;78.72;;
67900;Laerm;54700;51.796;10.956;2023-06-22T04:55:15;61.88;36.12;71.88;;
67900;Laerm;54700;51.796;10.956;2023-06-22T04:57:54;65.36;38.06;79.21;;
67900;Laerm;54700;51.796;10.956;2023-06-22T05:00:24;63.64;45.46;73.27;;
67900;Laerm;54700;51.796;10.956;2023-06-22T05:02:52;61.95;36.87;74.78;;
67900;Laerm;54700;51.796;10.956;2023-06-22T05:05:21;59.56;40.28;67.92;;
67900;Laerm;54700;51.796;10.956;2023-06-22T05:07:52;61.57;41.44;75.66;;
67900;Laerm;54700;51.796;10.956;2023-06-22T05:10:22;62.28;36.85;71.38;;
67900;Laerm;54700;51.796;10.956;2023-06-22T05:12:50;63.19;40.39;71.60;;
67900;Laerm;54700;51.796;10.956;2023-06-22T05:15:20;63.73;39.67;73.05;;
67900;Laerm;54700;51.796;10.956;2023-06-22T05:17:53;60.73;35.79;70.48;;
67900;Laerm;54700;51.796;10.956;2023-06-22T05:20:20;60.67;34.55;69.42;;
67900;Laerm;54700;51.796;10.956;2023-06-22T05:22:49;63.66;41.34;76.96;;
67900;Laerm;54700;51.796;10.956;2023-06-22T05:25:17;63.79;47.43;71.92;;
67900;Laerm;54700;51.796;10.956;2023-06-22T05:27:44;62.30;38.81;74.98;;
67900;Laerm;54700;51.796;10.956;2023-06-22T05:30:12;60.65;37.13;72.20;;
67900;Laerm;54700;51.796;10.956;2023-06-22T05:32:41;64.25;42.40;73.96;;
67900;Laerm;54700;51.796;10.956;2023-06-22T05:35:13;64.71;48.42;72.08;;
67900;Laerm;54700;51.796;10.956;2023-06-22T05:37:40;63.75;44.05;74.52;;
67900;Laerm;54700;51.796;10.956;2023-06-22T05:40:16;63.29;45.66;71.77;;
67900;Laerm;54700;51.796;10.956;2023-06-22T05:42:52;61.66;37.36;71.00;;
67900;Laerm;54700;51.796;10.956;2023-06-22T05:45:24;60.78;48.93;73.14;;
67900;Laerm;54700;51.796;10.956;2023-06-22T05:47:54;62.75;42.48;73.07;;
67900;Laerm;54700;51.796;10.956;2023-06-22T05:50:24;64.69;43.75;85.15;;
67900;Laerm;54700;51.796;10.956;2023-06-22T05:52:54;62.60;41.52;75.44;;
67900;Laerm;54700;51.796;10.956;2023-06-22T05:55:25;63.11;44.67;70.99;;
67900;Laerm;54700;51.796;10.956;2023-06-22T05:57:59;64.16;48.09;76.30;;
67900;Laerm;54700;51.796;10.956;2023-06-22T06:00:26;64.03;43.42;78.02;;
67900;Laerm;54700;51.796;10.956;2023-06-22T06:03:02;62.87;42.28;73.43;;
67900;Laerm;54700;51.796;10.956;2023-06-22T06:05:35;61.73;46.47;71.54;;
67900;Laerm;54700;51.796;10.956;2023-06-22T06:08:31;61.18;37.83;74.88;;
67900;Laerm;54700;51.796;10.956;2023-06-22T06:11:21;65.51;44.88;76.90;;
67900;Laerm;54700;51.796;10.956;2023-06-22T06:13:59;61.12;38.41;74.16;;
67900;Laerm;54700;51.796;10.956;2023-06-22T06:16:45;61.02;40.79;71.97;;
67900;Laerm;54700;51.796;10.956;2023-06-22T06:19:32;60.02;39.26;74.82;;
67900;Laerm;54700;51.796;10.956;2023-06-22T06:22:02;62.70;39.78;76.52;;
67900;Laerm;54700;51.796;10.956;2023-06-22T06:24:38;61.95;41.65;77.04;;
67900;Laerm;54700;51.796;10.956;2023-06-22T06:27:09;60.13;35.34;71.00;;
67900;Laerm;54700;51.796;10.956;2023-06-22T06:29:37;61.41;40.86;72.24;;
67900;Laerm;54700;51.796;10.956;2023-06-22T06:32:35;61.51;40.99;75.40;;
67900;Laerm;54700;51.796;10.956;2023-06-22T06:35:42;64.06;42.58;82.78;;
67900;Laerm;54700;51.796;10.956;2023-06-22T06:38:26;61.17;41.38;69.96;;
67900;Laerm;54700;51.796;10.956;2023-06-22T06:40:58;62.71;42.32;76.53;;
67900;Laerm;54700;51.796;10.956;2023-06-22T06:43:50;62.78;40.63;73.80;;
67900;Laerm;54700;51.796;10.956;2023-06-22T06:46:30;64.89;45.12;76.64;;
67900;Laerm;54700;51.796;10.956;2023-06-22T06:49:09;62.52;43.30;71.08;;
67900;Laerm;54700;51.796;10.956;2023-06-22T06:51:37;62.61;43.32;70.25;;
67900;Laerm;54700;51.796;10.956;2023-06-22T06:54:07;62.83;44.12;75.82;;
67900;Laerm;54700;51.796;10.956;2023-06-22T06:56:58;65.51;45.42;76.38;;
67900;Laerm;54700;51.796;10.956;2023-06-22T06:59:52;62.67;44.91;70.51;;
67900;Laerm;54700;51.796;10.956;2023-06-22T07:02:22;63.79;42.62;76.83;;
67900;Laerm;54700;51.796;10.956;2023-06-22T07:04:57;61.07;39.47;70.09;;
67900;Laerm;54700;51.796;10.956;2023-06-22T07:07:24;63.65;40.21;77.09;;
67900;Laerm;54700;51.796;10.956;2023-06-22T07:09:54;60.43;38.17;70.68;;
67900;Laerm;54700;51.796;10.956;2023-06-22T07:12:31;62.42;41.66;71.55;;
67900;Laerm;54700;51.796;10.956;2023-06-22T07:15:03;62.81;45.14;76.41;;
67900;Laerm;54700;51.796;10.956;2023-06-22T07:17:38;64.49;42.49;81.54;;
67900;Laerm;54700;51.796;10.956;2023-06-22T07:20:07;63.71;44.15;79.49;;
67900;Laerm;54700;51.796;10.956;2023-06-22T07:22:45;62.09;42.28;71.37;;
67900;Laerm;54700;51.796;10.956;2023-06-22T07:25:12;61.02;43.48;68.22;;
67900;Laerm;54700;51.796;10.956;2023-06-22T07:27:44;62.87;42.86;71.24;;
67900;Laerm;54700;51.796;10.956;2023-06-22T07:30:28;61.21;39.47;70.59;;
67900;Laerm;54700;51.796;10.956;2023-06-22T07:33:20;60.90;41.01;73.39;;
67900;Laerm;54700;51.796;10.956;2023-06-22T07:39:33;61.29;40.53;69.79;;
67900;Laerm;54700;51.796;10.956;2023-06-22T07:42:17;65.94;39.27;81.41;;
67900;Laerm;54700;51.796;10.956;2023-06-22T07:44:54;62.70;46.02;72.27;;
67900;Laerm;54700;51.796;10.956;2023-06-22T07:47:48;60.82;36.83;70.09;;
67900;Laerm;54700;51.796;10.956;2023-06-22T07:50:36;64.89;43.22;77.18;;
67900;Laerm;54700;51.796;10.956;2023-06-22T07:53:07;62.92;42.40;71.60;;
67900;Laerm;54700;51.796;10.956;2023-06-22T07:55:36;64.71;44.01;76.83;;
67900;Laerm;54700;51.796;10.956;2023-06-22T07:58:06;63.34;38.39;70.81;;
67900;Laerm;54700;51.796;10.956;2023-06-22T08:00:36;62.51;41.37;72.52;;
67900;Laerm;54700;51.796;10.956;2023-06-22T08:03:09;67.48;51.50;83.73;;
67900;Laerm;54700;51.796;10.956;2023-06-22T08:06:02;63.45;42.53;73.99;;
67900;Laerm;54700;51.796;10.956;2023-06-22T08:08:29;64.06;46.22;72.05;;
67900;Laerm;54700;51.796;10.956;2023-06-22T08:11:10;63.79;49.38;76.49;;
67900;Laerm;54700;51.796;10.956;2023-06-22T08:13:37;62.62;41.09;72.10;;
67900;Laerm;54700;51.796;10.956;2023-06-22T08:16:10;62.93;45.40;72.24;;
67900;Laerm;54700;51.796;10.956;2023-06-22T08:18:39;64.31;43.62;76.26;;
67900;Laerm;54700;51.796;10.956;2023-06-22T08:21:06;63.57;44.64;72.85;;
67900;Laerm;54700;51.796;10.956;2023-06-22T08:23:33;61.41;42.69;69.66;;
67900;Laerm;54700;51.796;10.956;2023-06-22T08:26:04;61.60;41.63;71.33;;
67900;Laerm;54700;51.796;10.956;2023-06-22T08:28:34;64.64;48.34;78.45;;
67900;Laerm;54700;51.796;10.956;2023-06-22T08:31:04;62.45;45.21;70.62;;
67900;Laerm;54700;51.796;10.956;2023-06-22T08:33:35;62.39;42.61;71.70;;
67900;Laerm;54700;51.796;10.956;2023-06-22T08:36:05;63.82;44.04;72.28;;
67900;Laerm;54700;51.796;10.956;2023-06-22T08:38:34;63.20;41.67;80.89;;
67900;Laerm;54700;51.796;10.956;2023-06-22T08:41:07;62.01;45.55;74.52;;
67900;Laerm;54700;51.796;10.956;2023-06-22T08:43:50;62.63;43.99;72.40;;
67900;Laerm;54700;51.796;10.956;2023-06-22T08:46:17;61.94;36.70;70.14;;
67900;Laerm;54700;51.796;10.956;2023-06-22T08:52:03;62.33;48.36;70.84;;
67900;Laerm;54700;51.796;10.956;2023-06-22T08:54:32;60.81;45.90;71.38;;
67900;Laerm;54700;51.796;10.956;2023-06-22T08:57:01;62.69;41.61;71.17;;
67900;Laerm;54700;51.796;10.956;2023-06-22T08:59:43;62.27;47.04;72.55;;
67900;Laerm;54700;51.796;10.956;2023-06-22T09:02:13;62.35;39.39;71.82;;
67900;Laerm;54700;51.796;10.956;2023-06-22T09:04:52;61.00;41.32;69.77;;
67900;Laerm;54700;51.796;10.956;2023-06-22T09:07:29;64.13;46.86;80.22;;
67900;Laerm;54700;51.796;10.956;2023-06-22T09:10:05;62.24;46.81;69.94;;
67900;Laerm;54700;51.796;10.956;2023-06-22T09:12:36;63.09;43.83;78.26;;
67900;Laerm;54700;51.796;10.956;2023-06-22T09:15:08;62.93;38.60;77.46;;
67900;Laerm;54700;51.796;10.956;2023-06-22T09:17:45;62.84;43.08;73.23;;
67900;Laerm;54700;51.796;10.956;2023-06-22T09:20:21;63.11;47.57;71.18;;
67900;Laerm;54700;51.796;10.956;2023-06-22T09:22:52;63.84;43.57;73.83;;
67900;Laerm;54700;51.796;10.956;2023-06-22T09:25:21;63.88;39.83;77.21;;
67900;Laerm;54700;51.796;10.956;2023-06-22T09:27:50;61.83;41.63;72.97;;
67900;Laerm;54700;51.796;10.956;2023-06-22T09:30:24;61.01;36.39;71.41;;
67900;Laerm;54700;51.796;10.956;2023-06-22T09:32:53;62.15;41.97;71.89;;
67900;Laerm;54700;51.796;10.956;2023-06-22T09:35:24;62.40;47.70;69.59;;
67900;Laerm;54700;51.796;10.956;2023-06-22T09:38:01;60.90;41.73;71.48;;
67900;Laerm;54700;51.796;10.956;2023-06-22T09:40:35;62.18;42.11;70.54;;
67900;Laerm;54700;51.796;10.956;2023-06-22T09:43:14;62.66;37.15;73.58;;
67900;Laerm;54700;51.796;10.956;2023-06-22T09:45:49;61.04;46.80;68.38;;
67900;Laerm;54700;51.796;10.956;2023-06-22T09:51:12;61.57;46.62;68.93;;
67900;Laerm;54700;51.796;10.956;2023-06-22T09:53:47;60.31;36.28;74.42;;
67900;Laerm;54700;51.796;10.956;2023-06-22T09:56:25;62.61;37.52;75.85;;
67900;Laerm;54700;51.796;10.956;2023-06-22T09:59:00;64.23;40.01;74.45;;
67900;Laerm;54700;51.796;10.956;2023-06-22T10:01:38;63.19;48.46;73.09;;
67900;Laerm;54700;51.796;10.956;2023-06-22T10:04:23;63.56;44.01;74.05;;
67900;Laerm;54700;51.796;10.956;2023-06-22T10:06:55;62.43;42.32;75.56;;
67900;Laerm;54700;51.796;10.956;2023-06-22T10:09:29;62.74;40.91;75.43;;
67900;Laerm;54700;51.796;10.956;2023-06-22T10:11:58;64.66;43.76;75.99;;
67900;Laerm;54700;51.796;10.956;2023-06-22T10:14:31;60.77;39.08;72.94;;
67900;Laerm;54700;51.796;10.956;2023-06-22T10:16:59;63.48;42.99;79.10;;
67900;Laerm;54700;51.796;10.956;2023-06-22T10:19:31;61.92;37.58;75.54;;
67900;Laerm;54700;51.796;10.956;2023-06-22T10:21:59;63.29;43.62;76.68;;
67900;Laerm;54700;51.796;10.956;2023-06-22T10:24:27;64.08;40.53;81.52;;
67900;Laerm;54700;51.796;10.956;2023-06-22T10:26:55;64.45;39.08;85.28;;
67900;Laerm;54700;51.796;10.956;2023-06-22T10:29:22;63.36;39.42;80.90;;
67900;Laerm;54700;51.796;10.956;2023-06-22T10:31:49;62.77;41.09;79.02;;
67900;Laerm;54700;51.796;10.956;2023-06-22T10:34:18;61.35;43.15;74.15;;
67900;Laerm;54700;51.796;10.956;2023-06-22T10:36:45;60.09;39.85;75.54;;
67900;Laerm;54700;51.796;10.956;2023-06-22T10:39:14;63.45;41.06;76.59;;
67900;Laerm;54700;51.796;10.956;2023-06-22T10:41:46;61.14;47.06;69.62;;
67900;Laerm;54700;51.796;10.956;2023-06-22T10:44:16;63.00;41.04;75.28;;
67900;Laerm;54700;51.796;10.956;2023-06-22T10:46:43;60.44;43.71;71.97;;
67900;Laerm;54700;51.796;10.956;2023-06-22T10:49:10;61.22;40.94;69.50;;
67900;Laerm;54700;51.796;10.956;2023-06-22T10:51:37;61.98;41.97;71.63;;
67900;Laerm;54700;51.796;10.956;2023-06-22T10:54:05;63.32;44.25;75.73;;
67900;Laerm;54700;51.796;10.956;2023-06-22T10:56:36;60.59;40.06;70.29;;
67900;Laerm;54700;51.796;10.956;2023-06-22T10:59:04;63.85;44.90;86.78;;
67900;Laerm;54700;51.796;10.956;2023-06-22T11:01:32;61.35;44.58;73.22;;
67900;Laerm;54700;51.796;10.956;2023-06-22T11:04:00;62.83;41.42;75.05;;
67900;Laerm;54700;51.796;10.956;2023-06-22T11:06:27;60.22;40.77;68.59;;
67900;Laerm;54700;51.796;10.956;2023-06-22T11:08:56;62.31;38.65;72.49;;
67900;Laerm;54700;51.796;10.956;2023-06-22T11:11:27;63.01;40.82;76.65;;
67900;Laerm;54700;51.796;10.956;2023-06-22T11:13:54;62.17;38.50;73.96;;
67900;Laerm;54700;51.796;10.956;2023-06-22T11:16:27;60.06;39.27;69.31;;
67900;Laerm;54700;51.796;10.956;2023-06-22T11:18:55;61.37;35.96;72.11;;
67900;Laerm;54700;51.796;10.956;2023-06-22T11:21:22;63.97;39.67;79.70;;
67900;Laerm;54700;51.796;10.956;2023-06-22T11:23:49;61.91;38.33;71.17;;
67900;Laerm;54700;51.796;10.956;2023-06-22T11:26:18;63.63;36.34;77.31;;
67900;Laerm;54700;51.796;10.956;2023-06-22T11:28:49;63.14;45.06;71.87;;
67900;Laerm;54700;51.796;10.956;2023-06-22T11:31:19;60.93;39.69;74.54;;
67900;Laerm;54700;51.796;10.956;2023-06-22T11:33:53;60.93;41.49;69.54;;
67900;Laerm;54700;51.796;10.956;2023-06-22T11:36:21;62.16;37.58;73.33;;
67900;Laerm;54700;51.796;10.956;2023-06-22T11:38:48;62.36;41.80;74.67;;
67900;Laerm;54700;51.796;10.956;2023-06-22T11:41:25;61.26;39.87;71.39;;
67900;Laerm;54700;51.796;10.956;2023-06-22T11:43:58;60.27;37.83;79.79;;
67900;Laerm;54700;51.796;10.956;2023-06-22T11:46:28;63.55;48.68;79.11;;
67900;Laerm;54700;51.796;10.956;2023-06-22T11:48:56;59.05;37.97;68.04;;
67900;Laerm;54700;51.796;10.956;2023-06-22T11:51:25;62.18;43.07;70.67;;
67900;Laerm;54700;51.796;10.956;2023-06-22T11:53:57;60.93;38.08;73.06;;
67900;Laerm;54700;51.796;10.956;2023-06-22T11:56:24;59.76;44.74;68.70;;
67900;Laerm;54700;51.796;10.956;2023-06-22T11:58:55;62.92;41.49;77.23;;
67900;Laerm;54700;51.796;10.956;2023-06-22T12:01:23;62.49;42.52;75.69;;
67900;Laerm;54700;51.796;10.956;2023-06-22T12:03:50;61.29;38.06;70.22;;
67900;Laerm;54700;51.796;10.956;2023-06-22T12:06:18;62.39;40.33;71.14;;
67900;Laerm;54700;51.796;10.956;2023-06-22T12:08:45;58.69;37.87;70.01;;
67900;Laerm;54700;51.796;10.956;2023-06-22T12:11:12;62.28;36.68;71.93;;
67900;Laerm;54700;51.796;10.956;2023-06-22T12:13:39;59.65;38.20;70.43;;
67900;Laerm;54700;51.796;10.956;2023-06-22T12:16:06;60.07;37.15;70.89;;
67900;Laerm;54700;51.796;10.956;2023-06-22T12:18:33;62.67;38.40;70.63;;
67900;Laerm;54700;51.796;10.956;2023-06-22T12:21:00;59.70;36.05;69.80;;
67900;Laerm;54700;51.796;10.956;2023-06-22T12:23:28;63.56;49.61;74.23;;
67900;Laerm;54700;51.796;10.956;2023-06-22T12:25:57;61.30;40.53;69.95;;
67900;Laerm;54700;51.796;10.956;2023-06-22T12:28:25;63.40;44.37;75.64;;
67900;Laerm;54700;51.796;10.956;2023-06-22T12:30:52;63.50;43.27;74.90;;
67900;Laerm;54700;51.796;10.956;2023-06-22T12:33:19;63.64;42.51;77.87;;
67900;Laerm;54700;51.796;10.956;2023-06-22T12:35:46;61.71;41.26;71.54;;
67900;Laerm;54700;51.796;10.956;2023-06-22T12:38:14;62.48;38.47;70.64;;
67900;Laerm;54700;51.796;10.956;2023-06-22T12:40:43;62.54;48.96;69.40;;
67900;Laerm;54700;51.796;10.956;2023-06-22T12:43:12;62.14;43.15;76.17;;
67900;Laerm;54700;51.796;10.956;2023-06-22T12:45:39;62.84;40.33;76.10;;
67900;Laerm;54700;51.796;10.956;2023-06-22T12:48:06;61.35;44.31;69.97;;
67900;Laerm;54700;51.796;10.956;2023-06-22T12:50:34;62.75;50.06;71.81;;
67900;Laerm;54700;51.796;10.956;2023-06-22T12:53:09;62.75;46.45;69.94;;
67900;Laerm;54700;51.796;10.956;2023-06-22T12:56:01;62.39;41.70;73.89;;
67900;Laerm;54700;51.796;10.956;2023-06-22T12:58:29;62.80;45.30;85.07;;
67900;Laerm;54700;51.796;10.956;2023-06-22T13:00:59;64.36;50.38;74.80;;
67900;Laerm;54700;51.796;10.956;2023-06-22T13:03:26;61.49;39.15;71.27;;
67900;Laerm;54700;51.796;10.956;2023-06-22T13:05:53;61.83;41.37;69.32;;
67900;Laerm;54700;51.796;10.956;2023-06-22T13:08:20;65.41;43.45;83.02;;
67900;Laerm;54700;51.796;10.956;2023-06-22T13:10:47;64.66;45.90;80.86;;
67900;Laerm;54700;51.796;10.956;2023-06-22T13:13:18;64.44;47.93;76.77;;
67900;Laerm;54700;51.796;10.956;2023-06-22T13:15:45;63.78;46.19;78.15;;
67900;Laerm;54700;51.796;10.956;2023-06-22T13:18:12;61.47;42.01;79.24;;
67900;Laerm;54700;51.796;10.956;2023-06-22T13:20:50;62.89;42.32;71.56;;
67900;Laerm;54700;51.796;10.956;2023-06-22T13:23:20;64.18;44.09;76.71;;
67900;Laerm;54700;51.796;10.956;2023-06-22T13:25:47;63.36;48.14;70.96;;
67900;Laerm;54700;51.796;10.956;2023-06-22T13:28:14;59.92;36.39;69.46;;
67900;Laerm;54700;51.796;10.956;2023-06-22T13:30:43;63.32;40.63;72.88;;
67900;Laerm;54700;51.796;10.956;2023-06-22T13:33:12;63.32;39.82;74.12;;
67900;Laerm;54700;51.796;10.956;2023-06-22T13:35:39;62.93;47.38;69.96;;
67900;Laerm;54700;51.796;10.956;2023-06-22T13:38:11;62.75;41.66;76.74;;
67900;Laerm;54700;51.796;10.956;2023-06-22T13:40:38;62.91;42.64;70.63;;
67900;Laerm;54700;51.796;10.956;2023-06-22T13:43:05;60.09;38.82;69.61;;
67900;Laerm;54700;51.796;10.956;2023-06-22T13:45:32;64.58;42.34;77.33;;
67900;Laerm;54700;51.796;10.956;2023-06-22T13:48:04;62.64;46.75;69.78;;
67900;Laerm;54700;51.796;10.956;2023-06-22T13:50:32;63.46;36.69;73.52;;
67900;Laerm;54700;51.796;10.956;2023-06-22T13:52:59;61.55;35.53;74.01;;
67900;Laerm;54700;51.796;10.956;2023-06-22T13:55:26;63.05;40.74;71.77;;
67900;Laerm;54700;51.796;10.956;2023-06-22T13:57:53;62.52;42.98;70.55;;
67900;Laerm;54700;51.796;10.956;2023-06-22T14:00:26;64.42;43.47;80.87;;